createdAt,value
2018-12-20T00:00:52.718Z,90.90
2018-12-20T00:03:22.703Z,91.30
2018-12-20T00:05:53.096Z,91.00
2018-12-20T00:08:23.193Z,90.70
2018-12-20T00:10:53.019Z,90.90
2018-12-20T00:13:22.764Z,90.70
2018-12-20T00:15:52.393Z,90.50
2018-12-20T00:18:22.247Z,90.70
2018-12-20T00:20:51.781Z,91.00
2018-12-20T00:23:21.512Z,91.40
2018-12-20T00:25:51.124Z,91.40
2018-12-20T00:28:21.468Z,91.90
2018-12-20T00:30:51.382Z,92.00
2018-12-20T00:33:21.300Z,91.70
2018-12-20T00:35:51.040Z,92.20
2018-12-20T00:38:20.686Z,92.40
2018-12-20T00:40:50.198Z,92.00
2018-12-20T00:43:19.727Z,92.20
2018-12-20T00:45:49.446Z,92.20
2018-12-20T00:48:19.155Z,92.10
2018-12-20T00:50:48.650Z,92.20
2018-12-20T00:53:18.238Z,92.10
2018-12-20T00:55:47.641Z,92.10
2018-12-20T00:58:17.255Z,91.80
2018-12-20T01:00:46.850Z,91.60
2018-12-20T01:03:16.491Z,91.70
2018-12-20T01:05:46.208Z,91.70
2018-12-20T01:08:15.967Z,91.80
2018-12-20T01:10:46.184Z,91.70
2018-12-20T01:13:15.763Z,91.70
2018-12-20T01:15:45.258Z,91.80
2018-12-20T01:18:14.768Z,91.60
2018-12-20T01:20:44.565Z,92.00
2018-12-20T01:23:14.364Z,91.20
2018-12-20T01:25:44.083Z,91.00
2018-12-20T01:28:13.861Z,90.80
2018-12-20T01:30:43.530Z,90.70
2018-12-20T01:33:13.462Z,91.30
2018-12-20T01:35:43.056Z,91.80
2018-12-20T01:38:12.673Z,91.60
2018-12-20T01:40:42.159Z,92.00
2018-12-20T01:43:11.812Z,91.70
2018-12-20T01:45:41.806Z,91.30
2018-12-20T01:48:11.518Z,91.30
2018-12-20T01:50:41.246Z,91.30
2018-12-20T01:53:11.103Z,91.10
2018-12-20T01:55:40.779Z,91.00
2018-12-20T01:58:10.477Z,90.70
2018-12-20T02:00:39.891Z,90.80
2018-12-20T02:03:09.599Z,90.80
2018-12-20T02:05:39.409Z,90.50
2018-12-20T02:08:08.929Z,90.80
2018-12-20T02:10:38.760Z,91.20
2018-12-20T02:13:08.713Z,91.30
2018-12-20T02:15:38.542Z,91.90
2018-12-20T02:18:08.130Z,91.90
2018-12-20T02:20:38.010Z,92.20
2018-12-20T02:23:07.507Z,92.30
2018-12-20T02:25:37.220Z,92.20
2018-12-20T02:28:06.994Z,92.50
2018-12-20T02:30:36.930Z,92.40
2018-12-20T02:33:06.575Z,92.40
2018-12-20T02:35:36.516Z,92.30
2018-12-20T02:38:06.143Z,92.30
2018-12-20T02:40:35.533Z,92.30
2018-12-20T02:43:05.363Z,92.30
2018-12-20T02:45:35.410Z,92.10
2018-12-20T02:48:05.361Z,92.00
2018-12-20T02:50:34.861Z,91.90
2018-12-20T02:53:04.365Z,91.70
2018-12-20T02:55:34.066Z,91.20
2018-12-20T02:58:03.834Z,91.50
2018-12-20T03:00:33.526Z,91.30
2018-12-20T03:03:03.198Z,91.30
2018-12-20T03:05:32.832Z,91.60
2018-12-20T03:08:02.545Z,91.40
2018-12-20T03:10:32.123Z,91.70
2018-12-20T03:13:01.847Z,91.90
2018-12-20T03:15:31.341Z,92.00
2018-12-20T03:18:01.168Z,92.20
2018-12-20T03:20:30.968Z,92.00
2018-12-20T03:23:00.777Z,92.00
2018-12-20T03:25:30.549Z,92.10
2018-12-20T03:28:00.118Z,92.10
2018-12-20T03:30:29.950Z,92.00
2018-12-20T03:32:59.745Z,92.00
2018-12-20T03:35:29.495Z,91.70
2018-12-20T03:37:59.263Z,91.90
2018-12-20T03:40:28.605Z,92.00
2018-12-20T03:42:58.152Z,91.80
2018-12-20T03:45:29.017Z,91.30
2018-12-20T03:47:59.170Z,91.60
2018-12-20T03:50:28.667Z,91.90
2018-12-20T03:52:58.333Z,91.90
2018-12-20T03:55:28.432Z,91.60
2018-12-20T03:57:58.068Z,91.40
2018-12-20T04:00:27.540Z,91.50
2018-12-20T04:02:57.473Z,91.50
2018-12-20T04:05:27.340Z,91.40
2018-12-20T04:07:56.741Z,91.60
2018-12-20T04:10:26.593Z,91.90
2018-12-20T04:12:56.747Z,91.70
2018-12-20T04:15:26.425Z,91.60
2018-12-20T04:17:56.169Z,91.60
2018-12-20T04:20:25.945Z,91.50
2018-12-20T04:22:55.687Z,91.30
2018-12-20T04:25:25.535Z,91.30
2018-12-20T04:27:55.207Z,90.90
2018-12-20T04:30:25.460Z,91.30
2018-12-20T04:32:55.360Z,91.60
2018-12-20T04:35:25.315Z,91.90
2018-12-20T04:37:54.935Z,91.80
2018-12-20T04:40:24.760Z,91.90
2018-12-20T04:42:55.006Z,91.80
2018-12-20T04:45:24.702Z,91.80
2018-12-20T04:47:55.754Z,91.50
2018-12-20T04:50:25.401Z,91.40
2018-12-20T04:52:54.995Z,91.00
2018-12-20T04:55:24.760Z,90.90
2018-12-20T04:57:54.217Z,91.20
2018-12-20T05:00:24.229Z,91.30
2018-12-20T05:02:53.916Z,91.40
2018-12-20T05:05:23.634Z,91.50
2018-12-20T05:07:53.247Z,91.40
2018-12-20T05:10:23.023Z,91.70
2018-12-20T05:12:52.695Z,91.80
2018-12-20T05:15:22.760Z,91.70
2018-12-20T05:17:52.461Z,91.30
2018-12-20T05:20:22.169Z,91.60
2018-12-20T05:22:51.912Z,91.50
2018-12-20T05:25:22.823Z,91.50
2018-12-20T05:27:52.446Z,91.50
2018-12-20T05:30:22.064Z,91.20
2018-12-20T05:32:51.713Z,90.90
2018-12-20T05:35:21.887Z,90.90
2018-12-20T05:37:51.683Z,90.80
2018-12-20T05:40:21.467Z,90.90
2018-12-20T05:42:51.285Z,91.20
2018-12-20T05:45:20.875Z,91.40
2018-12-20T05:47:50.696Z,91.50
2018-12-20T05:50:20.424Z,91.40
2018-12-20T05:52:49.906Z,91.50
2018-12-20T05:55:19.522Z,91.40
2018-12-20T05:57:49.287Z,91.40
2018-12-20T06:00:19.240Z,91.40
2018-12-20T06:02:48.793Z,91.40
2018-12-20T06:05:18.857Z,91.40
2018-12-20T06:07:48.767Z,91.70
2018-12-20T06:10:18.394Z,91.70
2018-12-20T06:12:48.028Z,91.60
2018-12-20T06:15:17.606Z,91.60
2018-12-20T06:17:47.165Z,91.70
2018-12-20T06:20:16.936Z,91.20
2018-12-20T06:22:46.415Z,90.90
2018-12-20T06:25:15.836Z,91.00
2018-12-20T06:27:45.416Z,90.90
2018-12-20T06:30:15.432Z,91.20
2018-12-20T06:32:44.956Z,91.40
2018-12-20T06:35:14.421Z,91.70
2018-12-20T06:37:43.745Z,91.80
2018-12-20T06:40:13.423Z,91.80
2018-12-20T06:42:42.865Z,91.40
2018-12-20T06:45:12.491Z,91.70
2018-12-20T06:47:42.151Z,91.30
2018-12-20T06:50:11.578Z,91.20
2018-12-20T06:52:41.364Z,91.40
2018-12-20T06:55:11.414Z,91.40
2018-12-20T06:57:41.492Z,91.30
2018-12-20T07:00:11.755Z,91.20
2018-12-20T07:02:41.672Z,91.00
2018-12-20T07:05:11.534Z,91.00
2018-12-20T07:07:41.421Z,91.00
2018-12-20T07:10:11.313Z,91.20
2018-12-20T07:12:40.956Z,91.30
2018-12-20T07:15:10.882Z,91.10
2018-12-20T07:17:41.060Z,91.00
2018-12-20T07:20:10.901Z,90.60
2018-12-20T07:22:40.555Z,90.80
2018-12-20T07:25:10.233Z,90.90
2018-12-20T07:27:39.703Z,90.50
2018-12-20T07:30:10.713Z,91.10
2018-12-20T07:32:40.405Z,90.40
2018-12-20T07:35:10.029Z,90.50
2018-12-20T07:37:39.355Z,91.10
2018-12-20T07:40:10.427Z,90.40
2018-12-20T07:42:40.047Z,90.80
2018-12-20T07:45:10.259Z,91.10
2018-12-20T07:47:40.082Z,90.80
2018-12-20T07:50:10.661Z,91.30
2018-12-20T07:52:40.438Z,91.10
2018-12-20T07:55:10.000Z,91.00
2018-12-20T07:57:39.852Z,91.00
2018-12-20T08:00:09.727Z,90.30
2018-12-20T08:02:39.546Z,91.00
2018-12-20T08:05:09.155Z,91.20
2018-12-20T08:07:39.177Z,90.80
2018-12-20T08:10:10.655Z,90.60
2018-12-20T08:12:40.569Z,90.20
2018-12-20T08:15:10.147Z,90.10
2018-12-20T08:17:39.530Z,91.10
2018-12-20T08:20:09.684Z,90.90
2018-12-20T08:22:39.228Z,91.40
2018-12-20T08:25:08.744Z,91.40
2018-12-20T08:27:38.579Z,91.50
2018-12-20T08:30:08.746Z,91.60
2018-12-20T08:32:38.507Z,91.50
2018-12-20T08:35:07.996Z,91.50
2018-12-20T08:37:38.083Z,91.30
2018-12-20T08:40:09.602Z,91.30
2018-12-20T08:42:39.517Z,91.50
2018-12-20T08:45:08.987Z,91.40
2018-12-20T08:47:38.905Z,91.30
2018-12-20T08:50:08.749Z,91.40
2018-12-20T08:52:38.461Z,91.40
2018-12-20T08:55:08.491Z,91.80
2018-12-20T08:57:38.434Z,91.90
2018-12-20T09:00:09.321Z,91.80
2018-12-20T09:02:38.995Z,91.70
2018-12-20T09:05:08.755Z,91.70
2018-12-20T09:07:38.675Z,92.10
2018-12-20T09:10:12.829Z,91.80
2018-12-20T09:12:42.707Z,92.20
2018-12-20T09:15:12.316Z,92.00
2018-12-20T09:17:42.174Z,92.10
2018-12-20T09:20:12.115Z,92.10
2018-12-20T09:22:41.795Z,91.40
2018-12-20T09:25:11.672Z,91.90
2018-12-20T09:27:41.302Z,91.40
2018-12-20T09:30:11.689Z,91.90
2018-12-20T09:32:45.934Z,91.50
2018-12-20T09:35:15.762Z,91.30
2018-12-20T09:37:45.586Z,91.10
2018-12-20T09:40:15.528Z,91.80
2018-12-20T09:42:45.484Z,92.20
2018-12-20T09:45:15.312Z,92.20
2018-12-20T09:47:50.155Z,92.40
2018-12-20T09:50:19.826Z,92.50
2018-12-20T09:52:49.457Z,92.80
2018-12-20T09:55:19.002Z,92.90
2018-12-20T09:57:48.702Z,92.80
2018-12-20T10:00:18.451Z,93.10
2018-12-20T10:02:47.848Z,92.90
2018-12-20T10:05:17.397Z,93.10
2018-12-20T10:07:47.701Z,93.10
2018-12-20T10:10:17.617Z,93.20
2018-12-20T10:12:47.755Z,92.90
2018-12-20T10:15:17.229Z,92.90
2018-12-20T10:17:47.138Z,92.90
2018-12-20T10:20:17.072Z,92.50
2018-12-20T10:22:46.999Z,92.10
2018-12-20T10:25:16.476Z,91.80
2018-12-20T10:27:46.091Z,91.20
2018-12-20T10:30:15.712Z,91.90
2018-12-20T10:32:45.427Z,91.90
2018-12-20T10:35:14.844Z,91.80
2018-12-20T10:37:44.604Z,92.00
2018-12-20T10:40:14.653Z,91.90
2018-12-20T10:42:44.579Z,92.20
2018-12-20T10:45:14.208Z,92.60
2018-12-20T10:47:43.802Z,92.50
2018-12-20T10:50:13.495Z,92.50
2018-12-20T10:52:43.121Z,92.50
2018-12-20T10:55:12.735Z,92.20
2018-12-20T10:57:42.549Z,91.80
2018-12-20T11:00:12.694Z,91.50
2018-12-20T11:02:47.492Z,92.10
2018-12-20T11:05:22.998Z,92.10
2018-12-20T11:07:59.915Z,92.00
2018-12-20T11:10:29.835Z,91.70
2018-12-20T11:13:01.996Z,91.60
2018-12-20T11:15:32.152Z,91.50
2018-12-20T11:18:01.792Z,91.20
2018-12-20T11:20:31.322Z,91.30
2018-12-20T11:23:01.592Z,91.10
2018-12-20T11:25:32.060Z,91.40
2018-12-20T11:28:02.770Z,91.30
2018-12-20T11:30:32.755Z,91.40
2018-12-20T11:33:02.735Z,91.20
2018-12-20T11:35:32.513Z,91.10
2018-12-20T11:38:02.608Z,91.20
2018-12-20T11:40:32.687Z,91.00
2018-12-20T11:43:02.542Z,91.00
2018-12-20T11:45:32.313Z,91.20
2018-12-20T11:48:02.293Z,91.30
2018-12-20T11:50:32.261Z,91.40
2018-12-20T11:53:01.897Z,90.90
2018-12-20T11:55:31.670Z,90.50
2018-12-20T11:58:01.495Z,90.60
2018-12-20T12:00:33.136Z,91.10
2018-12-20T12:03:02.868Z,91.50
2018-12-20T12:05:32.391Z,91.90
2018-12-20T12:08:02.132Z,92.40
2018-12-20T12:10:31.758Z,91.80
2018-12-20T12:13:01.288Z,91.10
2018-12-20T12:15:32.209Z,91.90
2018-12-20T12:18:01.918Z,91.30
2018-12-20T12:20:31.662Z,91.70
2018-12-20T12:23:01.495Z,91.90
2018-12-20T12:25:31.335Z,92.00
2018-12-20T12:28:02.161Z,91.20
2018-12-20T12:30:31.855Z,90.80
2018-12-20T12:33:01.483Z,90.90
2018-12-20T12:35:31.123Z,91.20
2018-12-20T12:38:01.087Z,91.30
2018-12-20T12:40:30.698Z,91.80
2018-12-20T12:43:00.473Z,92.20
2018-12-20T12:45:30.112Z,92.30
2018-12-20T12:48:03.581Z,92.40
2018-12-20T12:50:31.702Z,92.20
2018-12-20T12:53:01.482Z,92.40
2018-12-20T12:55:31.239Z,92.40
2018-12-20T12:58:04.979Z,92.50
2018-12-20T13:00:33.041Z,92.50
2018-12-20T13:03:02.762Z,92.50
2018-12-20T13:05:33.585Z,92.30
2018-12-20T13:08:03.353Z,92.50
2018-12-20T13:10:33.152Z,92.50
2018-12-20T13:13:03.035Z,92.40
2018-12-20T13:15:32.570Z,92.70
2018-12-20T13:18:04.517Z,92.60
2018-12-20T13:20:35.273Z,92.60
2018-12-20T13:23:05.015Z,92.60
2018-12-20T13:25:34.832Z,92.30
2018-12-20T13:28:04.472Z,92.30
2018-12-20T13:30:34.234Z,92.50
2018-12-20T13:33:03.795Z,92.30
2018-12-20T13:35:34.633Z,92.30
2018-12-20T13:38:04.573Z,92.40
2018-12-20T13:40:34.396Z,92.50
2018-12-20T13:43:04.280Z,92.60
2018-12-20T13:45:34.046Z,92.90
2018-12-20T13:48:03.647Z,92.60
2018-12-20T13:50:33.124Z,92.70
2018-12-20T13:53:02.744Z,92.70
2018-12-20T13:55:35.436Z,92.60
2018-12-20T13:58:05.254Z,92.70
2018-12-20T14:00:34.874Z,92.60
2018-12-20T14:03:04.575Z,92.60
2018-12-20T14:05:33.984Z,92.40
2018-12-20T14:08:03.729Z,92.50
2018-12-20T14:10:33.325Z,92.50
2018-12-20T14:13:03.012Z,92.30
2018-12-20T14:15:32.744Z,92.30
2018-12-20T14:18:03.149Z,92.30
2018-12-20T14:20:32.704Z,92.30
2018-12-20T14:23:02.567Z,92.30
2018-12-20T14:25:32.305Z,92.30
2018-12-20T14:28:01.929Z,92.30
2018-12-20T14:30:31.623Z,92.30
2018-12-20T14:33:01.358Z,92.30
2018-12-20T14:35:30.935Z,92.30
2018-12-20T14:38:00.340Z,92.30
2018-12-20T14:40:29.819Z,92.30
2018-12-20T14:42:59.506Z,92.30
2018-12-20T14:45:29.209Z,92.30
2018-12-20T14:47:59.015Z,92.30
2018-12-20T14:50:28.672Z,92.30
2018-12-20T14:52:58.689Z,92.30
2018-12-20T14:55:28.571Z,92.30
2018-12-20T14:57:58.553Z,92.20
2018-12-20T15:00:28.321Z,92.30
2018-12-20T15:02:58.093Z,92.50
2018-12-20T15:05:27.823Z,92.20
2018-12-20T15:07:57.388Z,92.20
2018-12-20T15:10:26.847Z,92.30
2018-12-20T15:12:56.982Z,92.30
2018-12-20T15:15:26.527Z,92.40
2018-12-20T15:17:57.142Z,92.60
2018-12-20T15:20:27.017Z,92.40
2018-12-20T15:23:00.916Z,92.40
2018-12-20T15:25:30.619Z,92.50
2018-12-20T15:28:00.271Z,92.60
2018-12-20T15:30:29.736Z,92.60
2018-12-20T15:32:59.925Z,92.60
2018-12-20T15:35:30.773Z,92.40
2018-12-20T15:38:00.428Z,92.30
2018-12-20T15:40:30.136Z,92.30
2018-12-20T15:42:59.715Z,92.60
2018-12-20T15:45:29.126Z,92.70
2018-12-20T15:47:58.901Z,92.60
2018-12-20T15:50:28.729Z,92.60
2018-12-20T15:52:58.749Z,92.60
2018-12-20T15:55:28.906Z,92.60
2018-12-20T15:57:58.670Z,92.60
2018-12-20T16:00:28.614Z,92.50
2018-12-20T16:02:58.463Z,92.60
2018-12-20T16:05:27.953Z,92.60
2018-12-20T16:08:01.925Z,92.60
2018-12-20T16:10:31.749Z,92.60
2018-12-20T16:13:01.539Z,92.60
2018-12-20T16:15:31.279Z,92.50
2018-12-20T16:18:01.238Z,92.60
2018-12-20T16:20:30.827Z,92.60
2018-12-20T16:23:00.487Z,92.50
2018-12-20T16:25:30.290Z,92.40
2018-12-20T16:27:59.955Z,92.30
2018-12-20T16:30:29.746Z,92.50
2018-12-20T16:32:59.301Z,92.40
2018-12-20T16:35:28.947Z,92.40
2018-12-20T16:37:58.785Z,92.30
2018-12-20T16:40:28.511Z,92.30
2018-12-20T16:42:58.285Z,92.30
2018-12-20T16:45:28.247Z,92.30
2018-12-20T16:47:57.909Z,92.30
2018-12-20T16:50:28.751Z,92.30
2018-12-20T16:52:59.172Z,92.40
2018-12-20T16:55:29.109Z,92.20
2018-12-20T16:57:58.923Z,92.20
2018-12-20T17:00:28.657Z,92.10
2018-12-20T17:02:58.731Z,92.10
2018-12-20T17:05:28.480Z,92.00
2018-12-20T17:07:58.233Z,92.00
2018-12-20T17:10:28.076Z,91.90
2018-12-20T17:12:57.787Z,91.80
2018-12-20T17:15:27.537Z,91.80
2018-12-20T17:17:57.543Z,91.80
2018-12-20T17:20:27.156Z,91.80
2018-12-20T17:22:56.701Z,91.80
2018-12-20T17:25:27.893Z,91.70
2018-12-20T17:27:57.584Z,91.80
2018-12-20T17:30:27.602Z,91.70
2018-12-20T17:32:57.312Z,91.60
2018-12-20T17:35:27.093Z,91.50
2018-12-20T17:37:57.016Z,91.60
2018-12-20T17:40:28.896Z,91.50
2018-12-20T17:42:58.912Z,91.50
2018-12-20T17:45:28.769Z,91.50
2018-12-20T17:47:58.258Z,91.50
2018-12-20T17:50:27.890Z,91.50
2018-12-20T17:52:57.737Z,91.50
2018-12-20T17:55:27.659Z,91.50
2018-12-20T17:57:57.688Z,91.50
2018-12-20T18:00:27.318Z,91.50
2018-12-20T18:02:57.376Z,91.50
2018-12-20T18:05:27.330Z,91.50
2018-12-20T18:07:57.049Z,91.50
2018-12-20T18:10:26.654Z,91.50
2018-12-20T18:12:56.288Z,91.40
2018-12-20T18:15:26.276Z,91.40
2018-12-20T18:17:56.011Z,91.30
2018-12-20T18:20:25.660Z,91.40
2018-12-20T18:22:55.235Z,91.30
2018-12-20T18:25:25.057Z,91.30
2018-12-20T18:27:54.554Z,91.30
2018-12-20T18:30:24.121Z,91.40
2018-12-20T18:32:54.001Z,91.30
2018-12-20T18:35:23.845Z,91.40
2018-12-20T18:37:53.566Z,91.20
2018-12-20T18:40:23.398Z,91.30
2018-12-20T18:42:53.834Z,91.30
2018-12-20T18:45:23.748Z,91.30
2018-12-20T18:47:53.937Z,91.30
2018-12-20T18:50:24.272Z,91.30
2018-12-20T18:52:54.113Z,91.30
2018-12-20T18:55:24.198Z,91.20
2018-12-20T18:57:54.308Z,91.30
2018-12-20T19:00:24.493Z,91.30
2018-12-20T19:02:54.766Z,91.30
2018-12-20T19:05:25.019Z,91.30
2018-12-20T19:07:56.489Z,91.20
2018-12-20T19:10:27.481Z,91.20
2018-12-20T19:12:57.905Z,91.20
2018-12-20T19:15:28.456Z,91.10
2018-12-20T19:17:59.481Z,91.30
2018-12-20T19:20:29.618Z,91.00
2018-12-20T19:22:59.847Z,91.10
2018-12-20T19:25:30.027Z,91.10
2018-12-20T19:27:59.733Z,91.10
2018-12-20T19:30:29.416Z,91.00
2018-12-20T19:32:59.792Z,91.00
2018-12-20T19:35:29.784Z,91.00
2018-12-20T19:37:59.758Z,91.00
2018-12-20T19:40:29.790Z,91.00
2018-12-20T19:42:59.283Z,91.00
2018-12-20T19:45:29.465Z,90.80
2018-12-20T19:47:59.107Z,90.80
2018-12-20T19:50:28.890Z,90.80
2018-12-20T19:52:58.426Z,90.70
2018-12-20T19:55:28.173Z,90.70
2018-12-20T19:57:57.879Z,90.70
2018-12-20T20:00:27.781Z,90.80
2018-12-20T20:02:57.969Z,90.80
2018-12-20T20:05:27.873Z,90.70
2018-12-20T20:07:57.546Z,90.70
2018-12-20T20:10:27.514Z,90.80
2018-12-20T20:12:57.698Z,90.70
2018-12-20T20:15:27.441Z,90.70
2018-12-20T20:17:57.283Z,90.80
2018-12-20T20:20:28.612Z,90.80
2018-12-20T20:22:58.301Z,90.80
2018-12-20T20:25:27.737Z,91.10
2018-12-20T20:27:57.374Z,91.00
2018-12-20T20:30:27.356Z,90.90
2018-12-20T20:32:57.355Z,91.00
2018-12-20T20:35:27.582Z,91.00
2018-12-20T20:37:57.483Z,91.00
2018-12-20T20:40:27.500Z,91.10
2018-12-20T20:42:57.322Z,91.10
2018-12-20T20:45:27.152Z,91.00
2018-12-20T20:47:56.969Z,91.00
2018-12-20T20:50:26.849Z,91.10
2018-12-20T20:52:56.673Z,91.10
2018-12-20T20:55:26.123Z,91.30
2018-12-20T20:57:55.534Z,91.70
2018-12-20T21:00:25.323Z,91.50
2018-12-20T21:02:55.107Z,91.30
2018-12-20T21:05:25.127Z,91.10
2018-12-20T21:07:54.821Z,91.20
2018-12-20T21:10:24.405Z,91.20
2018-12-20T21:12:53.970Z,91.20
2018-12-20T21:15:23.724Z,91.10
2018-12-20T21:17:53.423Z,91.20
2018-12-20T21:20:30.465Z,91.20
2018-12-20T21:22:54.536Z,91.30
2018-12-20T21:25:24.334Z,91.20
2018-12-20T21:27:53.897Z,91.30
2018-12-20T21:30:23.690Z,91.30
2018-12-20T21:32:53.581Z,91.30
2018-12-20T21:35:23.476Z,91.30
2018-12-20T21:37:53.670Z,91.30
2018-12-20T21:40:23.464Z,91.30
2018-12-20T21:42:53.660Z,91.30
2018-12-20T21:45:23.457Z,91.40
2018-12-20T21:47:53.324Z,91.40
2018-12-20T21:50:22.834Z,91.40
2018-12-20T21:52:52.471Z,91.50
2018-12-20T21:55:22.196Z,91.50
2018-12-20T21:57:52.364Z,91.30
2018-12-20T22:00:22.649Z,91.50
2018-12-20T22:02:52.415Z,91.60
2018-12-20T22:05:22.211Z,91.40
2018-12-20T22:07:52.136Z,91.50
2018-12-20T22:10:21.895Z,91.60
2018-12-20T22:12:51.584Z,91.60
2018-12-20T22:15:21.135Z,91.60
2018-12-20T22:17:51.333Z,91.50
2018-12-20T22:20:21.225Z,91.40
2018-12-20T22:22:51.340Z,91.50
2018-12-20T22:25:20.898Z,91.90
2018-12-20T22:27:50.626Z,91.50
2018-12-20T22:30:20.374Z,91.40
2018-12-20T22:32:51.047Z,91.50
2018-12-20T22:35:21.698Z,91.60
2018-12-20T22:37:51.475Z,91.50
2018-12-20T22:40:20.923Z,91.70
2018-12-20T22:42:50.628Z,91.70
2018-12-20T22:45:20.244Z,91.80
2018-12-20T22:47:49.796Z,91.90
2018-12-20T22:50:19.638Z,91.90
2018-12-20T22:52:49.193Z,91.80
2018-12-20T22:55:18.756Z,91.80
2018-12-20T22:57:48.367Z,91.90
2018-12-20T23:00:18.148Z,91.80
2018-12-20T23:02:48.766Z,91.70
2018-12-20T23:05:18.830Z,91.70
2018-12-20T23:07:48.414Z,91.60
2018-12-20T23:10:18.235Z,91.60
2018-12-20T23:12:47.978Z,91.70
2018-12-20T23:15:17.968Z,91.70
2018-12-20T23:17:48.080Z,91.90
2018-12-20T23:20:21.063Z,92.00
2018-12-20T23:22:50.973Z,92.40
2018-12-20T23:25:20.586Z,92.10
2018-12-20T23:27:50.255Z,92.00
2018-12-20T23:30:19.719Z,92.00
2018-12-20T23:32:49.428Z,92.00
2018-12-20T23:35:19.258Z,92.10
2018-12-20T23:37:48.757Z,92.10
2018-12-20T23:40:18.565Z,92.00
2018-12-20T23:42:47.917Z,92.00
2018-12-20T23:45:18.029Z,92.00
2018-12-20T23:47:48.045Z,92.00
2018-12-20T23:50:17.757Z,91.80
2018-12-20T23:52:47.523Z,91.80
2018-12-20T23:55:17.928Z,91.70
2018-12-20T23:57:47.635Z,91.70
